ADDS METAR Data INFO
IDs: Format: Raw Decoded Include TAF

Data at: 2053 UTC 26 May 2017

KPPA 262035Z AUTO 16003KT 10SM CLR 29/10 A2989 RMK AO2 T02920103
KPPA 262015Z AUTO 24005KT 10SM CLR 29/11 A2990 RMK AO2 T02900108
KPPA 261955Z AUTO 00000KT 10SM CLR 29/11 A2990 RMK AO2 T02890106
KPPA 261935Z AUTO 32003KT 10SM CLR 28/11 A2991 RMK AO2 T02790105
KPPA 261915Z AUTO 01003KT 10SM CLR 28/11 A2992 RMK AO2 T02750109
KPPA 261855Z AUTO 04003KT 10SM CLR 27/10 A2992 RMK AO2 T02720100
KPPA 261815Z AUTO 03006KT 10SM CLR 27/10 A2992 RMK AO2 T02650103
KPPA 261755Z AUTO 05008G14KT 10SM CLR 26/11 A2992 RMK AO2 T02600108 10260 20130
KPPA 261735Z AUTO 04009G15KT 10SM CLR 26/12 A2992 RMK AO2 T02580115
KPPA 261715Z AUTO 02010G17KT 10SM CLR 25/11 A2992 RMK AO2 T02510111
KPPA 261655Z AUTO 02011G15KT 10SM CLR 25/12 A2991 RMK AO2 T02480118
KPPA 261635Z AUTO 03012G15KT 10SM CLR 24/12 A2991 RMK AO2 T02390120
KPPA 261615Z AUTO 36012G17KT 10SM CLR 23/12 A2992 RMK AO2 T02320122
KPPA 261555Z AUTO 01014G18KT 10SM CLR 23/12 A2991 RMK AO2 T02270123
KPPA 261535Z AUTO 36009KT 10SM CLR 22/12 A2992 RMK AO2 T02210122
KPPA 261515Z AUTO 36013KT 10SM CLR 22/12 A2992 RMK AO2 T02150122
KPPA 261455Z AUTO 36013G18KT 10SM CLR 21/12 A2991 RMK AO2 T02090119
KPPA 261435Z AUTO 36017G21KT 10SM CLR 20/12 A2991 RMK AO2 T02010121
KPPA 261415Z AUTO 36015G21KT 10SM CLR 19/12 A2990 RMK AO2 T01940124
KPPA 261355Z AUTO 36014G23KT 10SM CLR 19/13 A2990 RMK AO2 T01860125
KPPA 261335Z AUTO 35014G21KT 10SM CLR 17/13 A2989 RMK AO2 T01740125
KPPA 261315Z AUTO 35017G21KT 10SM CLR 17/13 A2988 RMK AO2 T01650125
KPPA 261255Z AUTO 35015KT 10SM CLR 16/13 A2987 RMK AO2 T01550126
KPPA 261235Z AUTO 34012KT 10SM CLR 14/13 A2985 RMK AO2 T01430125
KPPA 261215Z AUTO 33010KT 10SM CLR 13/12 A2984 RMK AO2 T01340120
KPPA 261155Z AUTO 33009KT 10SM CLR 13/12 A2982 RMK AO2 T01300116 10245 20125
KPPA 261135Z AUTO 33011KT 10SM CLR 13/12 A2980 RMK AO2 T01270115
KPPA 261115Z AUTO 32012KT 10SM CLR 13/11 A2980 RMK AO2 T01280113
KPPA 261055Z AUTO 33013KT 10SM CLR 13/12 A2978 RMK AO2 T01300115
KPPA 261035Z AUTO 31008KT 10SM CLR 13/11 A2978 RMK AO2 T01270111
KPPA 261015Z AUTO 31009KT 10SM CLR 13/11 A2978 RMK AO2 T01310112
KPPA 260955Z AUTO 31009KT 10SM CLR 13/11 A2976 RMK AO2 T01340113
KPPA 260935Z AUTO 32013KT 10SM CLR 13/11 A2976 RMK AO2 T01320109
KPPA 260915Z AUTO 31012KT 10SM CLR 13/10 A2974 RMK AO2 T01320101
KPPA 260855Z AUTO 30010KT 10SM CLR 13/09 A2973 RMK AO2 T01330088
KPPA 260835Z AUTO 30011KT 10SM CLR 14/07 A2971 RMK AO2 T01360069
KPPA 260810Z AUTO 30010KT 10SM CLR 16/04 A2970 RMK AO2 T01580040
KPPA 260755Z AUTO 29011KT 10SM CLR 18/02 A2969 RMK AO2 T01770019
KPPA 260735Z AUTO 29010KT 10SM CLR 18/01 A2968 RMK AO2 T01790011
KPPA 260715Z AUTO 29009KT 10SM CLR 19/01 A2968 RMK AO2 T01940006
KPPA 260655Z AUTO 28008KT 10SM CLR 20/00 A2967 RMK AO2 T02030001
KPPA 260635Z AUTO 28019G27KT 10SM CLR 23/M01 A2966 RMK AO2 T02341012
KPPA 260615Z AUTO 25012KT 10SM CLR 24/M02 A2963 RMK AO2 T02431020
KPPA 260555Z AUTO 24010KT 10SM CLR 23/M01 A2963 RMK AO2 T02301008 10336 20213 403600116
KPPA 260535Z AUTO 23011KT 10SM CLR 24/M01 A2963 RMK AO2 LTG DSNT NE T02351012
KPPA 260515Z AUTO 24012KT 10SM CLR 24/M01 A2963 RMK AO2 T02351007
KPPA 260455Z AUTO 23011KT 10SM CLR 22/00 A2962 RMK AO2 T02180002
KPPA 260435Z AUTO 22010KT 10SM CLR 22/01 A2962 RMK AO2 T02220009
KPPA 260415Z AUTO 22011KT 10SM CLR 23/01 A2962 RMK AO2 T02260012
KPPA 260355Z AUTO 22010KT 10SM CLR 22/02 A2961 RMK AO2 T02210019
KPPA 260335Z AUTO 22010KT 10SM CLR 22/03 A2960 RMK AO2 T02200025
KPPA 260315Z AUTO 21010KT 10SM CLR 22/03 A2959 RMK AO2 T02240025
KPPA 260255Z AUTO 22010KT 10SM CLR 23/03 A2959 RMK AO2 T02260028
KPPA 260235Z AUTO 23009KT 10SM CLR 23/04 A2958 RMK AO2 T02290037
KPPA 260215Z AUTO 23009KT 10SM CLR 25/02 A2958 RMK AO2 T02470023
KPPA 260155Z AUTO 24010KT 10SM CLR 25/03 A2957 RMK AO2 T02510030
KPPA 260135Z AUTO 23010KT 10SM CLR 26/03 A2956 RMK AO2 T02560031
KPPA 260115Z AUTO 24008KT 10SM CLR 26/04 A2956 RMK AO2 T02610035
KPPA 260055Z AUTO 25008KT 10SM CLR 29/02 A2956 RMK AO2 T02880022
KPPA 260035Z AUTO 27010KT 10SM CLR 31/00 A2955 RMK AO2 T03140000
KPPA 260015Z AUTO 27012G22KT 10SM CLR 33/00 A2955 RMK AO2 T03281004
KPPA 252355Z AUTO 28016G24KT 10SM CLR 34/00 A2955 RMK AO2 T03361004 10360 20336
KPPA 252335Z AUTO 27017G20KT 10SM CLR 34/01 A2955 RMK AO2 T03430010
KPPA 252315Z AUTO 26021G28KT 10SM CLR 35/00 A2955 RMK AO2 T03450001
KPPA 252255Z AUTO 26017G29KT 10SM CLR 35/M01 A2955 RMK AO2 T03491007
KPPA 252235Z AUTO 26014G22KT 10SM CLR 35/02 A2955 RMK AO2 T03500017
KPPA 252215Z AUTO 25016G22KT 10SM CLR 35/01 A2955 RMK AO2 T03470008
KPPA 252155Z AUTO 25019G23KT 10SM CLR 36/01 A2956 RMK AO2 T03550007
KPPA 252135Z AUTO 24019G24KT 10SM CLR 35/00 A2956 RMK AO2 T03510002
KPPA 252115Z AUTO 25017G21KT 10SM CLR 36/01 A2956 RMK AO2 T03580012
KPPA 252055Z AUTO 25018G22KT 10SM CLR 35/01 A2957 RMK AO2 T03540013
KPPA 252035Z AUTO 24015G24KT 10SM CLR 35/01 A2957 RMK AO2 T03510011
KPPA 252015Z AUTO 25015G19KT 10SM CLR 35/03 A2958 RMK AO2 T03540028
KPPA 251955Z AUTO 27013G17KT 10SM CLR 35/04 A2958 RMK AO2 T03480044
KPPA 251935Z AUTO 25012G18KT 10SM CLR 35/04 A2959 RMK AO2 T03480036
KPPA 251915Z AUTO 28011G18KT 10SM CLR 34/03 A2959 RMK AO2 T03440029
KPPA 251855Z AUTO 29015G19KT 10SM CLR 34/04 A2960 RMK AO2 T03400037
KPPA 251835Z AUTO 28012G20KT 10SM CLR 34/04 A2960 RMK AO2 T03390040
KPPA 251815Z AUTO 28016KT 10SM CLR 34/04 A2960 RMK AO2 T03400037
KPPA 251755Z AUTO 29018G22KT 10SM CLR 34/03 A2960 RMK AO2 T03400029 10342 20118
KPPA 251735Z AUTO 29019G25KT 10SM CLR 34/02 A2960 RMK AO2 T03390022
KPPA 251715Z AUTO 29016KT 10SM CLR 34/04 A2960 RMK AO2 T03360044
KPPA 251655Z AUTO 28013KT 10SM CLR 32/06 A2960 RMK AO2 T03200058
KPPA 251635Z AUTO 27014G17KT 10SM CLR 32/06 A2960 RMK AO2 T03150062
KPPA 251615Z AUTO 28014KT 10SM CLR 31/06 A2960 RMK AO2 T03080058
KPPA 251555Z AUTO 27013KT 10SM CLR 30/05 A2960 RMK AO2 T03010054
KPPA 251535Z AUTO 26010KT 10SM CLR 29/06 A2959 RMK AO2 T02870063
KPPA 251515Z AUTO 24009KT 10SM CLR 27/07 A2960 RMK AO2 T02720071
KPPA 251455Z AUTO 22008KT 10SM CLR 26/07 A2960 RMK AO2 T02570069
KPPA 251435Z AUTO 23010KT 10SM CLR 23/08 A2961 RMK AO2 T02290083
KPPA 251415Z AUTO 22008KT 10SM CLR 21/09 A2961 RMK AO2 T02130089
KPPA 251355Z AUTO 21010KT 10SM CLR 20/09 A2960 RMK AO2 T01950086
KPPA 251335Z AUTO 20011KT 10SM CLR 18/09 A2960 RMK AO2 T01800085
KPPA 251315Z AUTO 21011KT 10SM CLR 17/08 A2960 RMK AO2 T01710084
KPPA 251255Z AUTO 19007KT 10SM CLR 15/09 A2960 RMK AO2 T01520087
KPPA 251235Z AUTO 19010KT 10SM CLR 14/09 A2961 RMK AO2 T01350085
KPPA 251215Z AUTO 18010KT 10SM CLR 12/08 A2961 RMK AO2 T01240083
KPPA 251155Z AUTO 18010KT 10SM CLR 12/08 A2960 RMK AO2 T01190082 10150 20116
KPPA 251135Z AUTO 17010KT 10SM CLR 12/08 A2959 RMK AO2 T01180081
KPPA 251115Z AUTO 17008KT 10SM CLR 12/08 A2959 RMK AO2 T01160080
KPPA 251055Z AUTO 17011KT 10SM CLR 12/08 A2958 RMK AO2 T01210082
KPPA 251035Z AUTO 17009KT 10SM CLR 12/08 A2958 RMK AO2 T01230083
KPPA 251015Z AUTO 16013KT 10SM CLR 13/08 A2958 RMK AO2 T01270084
KPPA 250955Z AUTO 16013G17KT 10SM CLR 13/08 A2958 RMK AO2 T01310083
KPPA 250935Z AUTO 16013KT 10SM CLR 13/09 A2958 RMK AO2 T01330085
KPPA 250915Z AUTO 16016KT 10SM CLR 13/09 A2959 RMK AO2 T01340085
KPPA 250855Z AUTO 15013KT 10SM CLR 13/09 A2960 RMK AO2 T01340085


Page loaded:  20:53 UTC  |   01:53 PM Pacific  |   02:53 PM Mountain  |   03:53 PM Central  |   04:53 PM Eastern

 

ADVISORIES

FORECASTS

FORECASTS

OBSERVATIONS

USER TOOLS

ABOUT US